sensor_id;sensor_type;location;lat;lon;timestamp;pressure;altitude;pressure_sealevel;temperature;humidity
40946;BME280;55635;50.264;11.918;2024-02-04T00:01:18;96198.72;;;9.76;100.00
40946;BME280;55635;50.264;11.918;2024-02-04T00:03:59;96195.22;;;9.76;100.00
40946;BME280;55635;50.264;11.918;2024-02-04T00:06:40;96199.22;;;9.72;100.00
40946;BME280;55635;50.264;11.918;2024-02-04T00:09:22;96192.41;;;9.69;100.00
40946;BME280;55635;50.264;11.918;2024-02-04T00:12:04;96203.53;;;9.65;100.00
40946;BME280;55635;50.264;11.918;2024-02-04T00:14:47;96192.59;;;9.68;100.00
40946;BME280;55635;50.264;11.918;2024-02-04T00:17:31;96184.00;;;9.50;100.00
40946;BME280;55635;50.264;11.918;2024-02-04T00:20:14;96180.69;;;9.72;100.00
40946;BME280;55635;50.264;11.918;2024-02-04T00:22:55;96173.91;;;9.61;100.00
40946;BME280;55635;50.264;11.918;2024-02-04T00:25:36;96166.13;;;9.60;100.00
40946;BME280;55635;50.264;11.918;2024-02-04T00:28:17;96174.22;;;9.66;100.00
40946;BME280;55635;50.264;11.918;2024-02-04T00:30:59;96183.84;;;9.59;100.00
40946;BME280;55635;50.264;11.918;2024-02-04T00:33:40;96173.06;;;9.69;100.00
40946;BME280;55635;50.264;11.918;2024-02-04T00:36:21;96160.50;;;9.55;100.00
40946;BME280;55635;50.264;11.918;2024-02-04T00:39:03;96162.63;;;9.51;100.00
40946;BME280;55635;50.264;11.918;2024-02-04T00:41:44;96171.41;;;9.52;100.00
40946;BME280;55635;50.264;11.918;2024-02-04T00:44:26;96179.34;;;9.44;100.00
40946;BME280;55635;50.264;11.918;2024-02-04T00:47:06;96176.19;;;9.48;100.00
40946;BME280;55635;50.264;11.918;2024-02-04T00:49:48;96185.97;;;9.64;100.00
40946;BME280;55635;50.264;11.918;2024-02-04T00:52:29;96187.97;;;9.62;100.00
40946;BME280;55635;50.264;11.918;2024-02-04T00:55:10;96195.06;;;9.53;100.00
40946;BME280;55635;50.264;11.918;2024-02-04T00:57:51;96199.22;;;9.48;100.00
40946;BME280;55635;50.264;11.918;2024-02-04T01:00:32;96207.31;;;9.38;100.00
40946;BME280;55635;50.264;11.918;2024-02-04T01:03:13;96212.44;;;9.48;100.00
40946;BME280;55635;50.264;11.918;2024-02-04T01:05:54;96203.16;;;9.36;100.00
40946;BME280;55635;50.264;11.918;2024-02-04T01:08:36;96201.16;;;9.29;100.00
40946;BME280;55635;50.264;11.918;2024-02-04T01:11:18;96203.16;;;9.44;100.00
40946;BME280;55635;50.264;11.918;2024-02-04T01:13:59;96201.00;;;9.31;100.00
40946;BME280;55635;50.264;11.918;2024-02-04T01:16:40;96204.84;;;9.53;100.00
40946;BME280;55635;50.264;11.918;2024-02-04T01:19:21;96198.22;;;9.57;100.00
40946;BME280;55635;50.264;11.918;2024-02-04T01:22:03;96197.88;;;9.52;100.00
40946;BME280;55635;50.264;11.918;2024-02-04T01:24:44;96185.63;;;9.83;100.00
40946;BME280;55635;50.264;11.918;2024-02-04T01:27:25;96185.81;;;9.49;100.00
40946;BME280;55635;50.264;11.918;2024-02-04T01:30:07;96185.31;;;9.62;100.00
40946;BME280;55635;50.264;11.918;2024-02-04T01:32:49;96187.97;;;9.62;100.00
40946;BME280;55635;50.264;11.918;2024-02-04T01:35:31;96176.69;;;9.76;100.00
40946;BME280;55635;50.264;11.918;2024-02-04T01:38:12;96184.16;;;9.64;100.00
40946;BME280;55635;50.264;11.918;2024-02-04T01:40:53;96177.03;;;9.89;100.00
40946;BME280;55635;50.264;11.918;2024-02-04T01:43:34;96176.88;;;9.91;100.00
40946;BME280;55635;50.264;11.918;2024-02-04T01:46:16;96178.19;;;9.78;100.00
40946;BME280;55635;50.264;11.918;2024-02-04T01:48:57;96174.72;;;9.62;100.00
40946;BME280;55635;50.264;11.918;2024-02-04T01:51:38;96169.59;;;9.68;100.00
40946;BME280;55635;50.264;11.918;2024-02-04T01:54:20;96162.31;;;9.54;100.00
40946;BME280;55635;50.264;11.918;2024-02-04T01:57:01;96164.16;;;9.54;100.00
40946;BME280;55635;50.264;11.918;2024-02-04T01:59:42;96160.97;;;9.82;100.00
40946;BME280;55635;50.264;11.918;2024-02-04T02:02:25;96173.06;;;9.45;100.00
40946;BME280;55635;50.264;11.918;2024-02-04T02:05:08;96174.22;;;9.58;100.00
40946;BME280;55635;50.264;11.918;2024-02-04T02:07:52;96180.00;;;9.70;100.00
40946;BME280;55635;50.264;11.918;2024-02-04T02:10:33;96169.91;;;9.73;100.00
40946;BME280;55635;50.264;11.918;2024-02-04T02:13:23;96171.09;;;9.71;100.00
40946;BME280;55635;50.264;11.918;2024-02-04T02:16:13;96174.06;;;9.84;100.00
40946;BME280;55635;50.264;11.918;2024-02-04T02:22:31;96167.59;;;9.78;100.00
40946;BME280;55635;50.264;11.918;2024-02-04T02:25:19;96166.09;;;9.92;100.00
40946;BME280;55635;50.264;11.918;2024-02-04T02:28:01;96164.78;;;9.80;100.00
40946;BME280;55635;50.264;11.918;2024-02-04T02:30:42;96166.13;;;9.68;100.00
40946;BME280;55635;50.264;11.918;2024-02-04T02:33:23;96162.16;;;9.56;100.00
40946;BME280;55635;50.264;11.918;2024-02-04T02:36:10;96168.75;;;9.76;100.00
40946;BME280;55635;50.264;11.918;2024-02-04T02:39:07;96160.31;;;9.40;100.00
40946;BME280;55635;50.264;11.918;2024-02-04T02:41:56;96162.31;;;9.46;100.00
40946;BME280;55635;50.264;11.918;2024-02-04T02:44:39;96171.91;;;9.71;100.00
40946;BME280;55635;50.264;11.918;2024-02-04T02:47:22;96165.59;;;9.48;100.00
40946;BME280;55635;50.264;11.918;2024-02-04T02:50:05;96168.44;;;9.47;100.00
40946;BME280;55635;50.264;11.918;2024-02-04T02:52:47;96178.38;;;9.69;100.00
40946;BME280;55635;50.264;11.918;2024-02-04T02:55:28;96188.63;;;9.80;100.00
40946;BME280;55635;50.264;11.918;2024-02-04T02:58:09;96174.88;;;9.93;100.00
40946;BME280;55635;50.264;11.918;2024-02-04T03:00:51;96179.50;;;9.66;100.00
40946;BME280;55635;50.264;11.918;2024-02-04T03:03:32;96178.19;;;9.70;100.00
40946;BME280;55635;50.264;11.918;2024-02-04T03:06:13;96180.19;;;9.44;100.00
40946;BME280;55635;50.264;11.918;2024-02-04T03:08:54;96183.63;;;9.85;100.00
40946;BME280;55635;50.264;11.918;2024-02-04T03:11:35;96186.97;;;9.63;100.00
40946;BME280;55635;50.264;11.918;2024-02-04T03:14:19;96178.63;;;9.17;100.00
40946;BME280;55635;50.264;11.918;2024-02-04T03:17:01;96194.25;;;9.69;100.00
40946;BME280;55635;50.264;11.918;2024-02-04T03:19:42;96185.28;;;9.46;100.00
40946;BME280;55635;50.264;11.918;2024-02-04T03:22:26;96182.50;;;9.47;100.00
40946;BME280;55635;50.264;11.918;2024-02-04T03:25:07;96183.16;;;9.65;100.00
40946;BME280;55635;50.264;11.918;2024-02-04T03:27:48;96183.81;;;9.67;100.00
40946;BME280;55635;50.264;11.918;2024-02-04T03:30:30;96170.09;;;9.64;100.00
40946;BME280;55635;50.264;11.918;2024-02-04T03:33:11;96172.91;;;9.70;100.00
40946;BME280;55635;50.264;11.918;2024-02-04T03:35:53;96170.59;;;9.59;100.00
40946;BME280;55635;50.264;11.918;2024-02-04T03:38:35;96174.38;;;9.33;100.00
40946;BME280;55635;50.264;11.918;2024-02-04T03:41:16;96173.38;;;9.34;100.00
40946;BME280;55635;50.264;11.918;2024-02-04T03:43:58;96182.63;;;9.29;100.00
40946;BME280;55635;50.264;11.918;2024-02-04T03:46:39;96180.69;;;9.48;100.00
40946;BME280;55635;50.264;11.918;2024-02-04T03:49:21;96143.97;;;9.45;100.00
40946;BME280;55635;50.264;11.918;2024-02-04T03:52:02;96167.78;;;9.53;100.00
40946;BME280;55635;50.264;11.918;2024-02-04T03:54:44;96172.91;;;9.46;100.00
40946;BME280;55635;50.264;11.918;2024-02-04T03:57:24;96172.69;;;9.15;100.00
40946;BME280;55635;50.264;11.918;2024-02-04T04:00:07;96159.50;;;9.32;100.00
40946;BME280;55635;50.264;11.918;2024-02-04T04:02:52;96153.38;;;9.39;100.00
40946;BME280;55635;50.264;11.918;2024-02-04T04:05:33;96170.25;;;9.38;100.00
40946;BME280;55635;50.264;11.918;2024-02-04T04:08:14;96158.53;;;9.57;100.00
40946;BME280;55635;50.264;11.918;2024-02-04T04:10:56;96155.38;;;9.61;100.00
40946;BME280;55635;50.264;11.918;2024-02-04T04:13:37;96145.44;;;9.47;100.00
40946;BME280;55635;50.264;11.918;2024-02-04T04:16:21;96156.69;;;9.41;100.00
40946;BME280;55635;50.264;11.918;2024-02-04T04:19:03;96153.22;;;9.65;100.00
40946;BME280;55635;50.264;11.918;2024-02-04T04:21:44;96152.88;;;9.68;100.00
40946;BME280;55635;50.264;11.918;2024-02-04T04:24:25;96157.69;;;9.64;100.00
40946;BME280;55635;50.264;11.918;2024-02-04T04:27:06;96143.94;;;9.77;100.00
40946;BME280;55635;50.264;11.918;2024-02-04T04:29:47;96146.28;;;9.72;100.00
40946;BME280;55635;50.264;11.918;2024-02-04T04:32:28;96136.00;;;9.61;100.00
40946;BME280;55635;50.264;11.918;2024-02-04T04:35:09;96127.41;;;9.51;100.00
40946;BME280;55635;50.264;11.918;2024-02-04T04:37:50;96140.13;;;9.55;100.00
40946;BME280;55635;50.264;11.918;2024-02-04T04:40:31;96138.16;;;9.41;100.00
40946;BME280;55635;50.264;11.918;2024-02-04T04:43:12;96122.78;;;9.45;100.00
40946;BME280;55635;50.264;11.918;2024-02-04T04:45:54;96139.47;;;9.37;100.00
40946;BME280;55635;50.264;11.918;2024-02-04T04:48:35;96135.03;;;9.38;100.00
40946;BME280;55635;50.264;11.918;2024-02-04T04:51:16;96134.50;;;9.58;100.00
40946;BME280;55635;50.264;11.918;2024-02-04T04:53:58;96138.66;;;9.45;100.00
40946;BME280;55635;50.264;11.918;2024-02-04T04:56:39;96134.34;;;9.27;100.00
40946;BME280;55635;50.264;11.918;2024-02-04T04:59:20;96139.97;;;9.41;100.00
40946;BME280;55635;50.264;11.918;2024-02-04T05:02:02;96148.91;;;9.32;100.00
40946;BME280;55635;50.264;11.918;2024-02-04T05:04:44;96146.94;;;9.50;100.00
40946;BME280;55635;50.264;11.918;2024-02-04T05:07:34;96155.84;;;9.24;100.00
40946;BME280;55635;50.264;11.918;2024-02-04T05:10:15;96139.81;;;9.34;100.00
40946;BME280;55635;50.264;11.918;2024-02-04T05:12:56;96138.00;;;9.51;100.00
40946;BME280;55635;50.264;11.918;2024-02-04T05:15:37;96151.06;;;9.44;100.00
40946;BME280;55635;50.264;11.918;2024-02-04T05:18:18;96136.31;;;9.34;100.00
40946;BME280;55635;50.264;11.918;2024-02-04T05:21:00;96135.00;;;9.46;100.00
40946;BME280;55635;50.264;11.918;2024-02-04T05:23:41;96129.06;;;9.44;100.00
40946;BME280;55635;50.264;11.918;2024-02-04T05:26:22;96131.69;;;9.27;100.00
40946;BME280;55635;50.264;11.918;2024-02-04T05:29:03;96128.56;;;9.16;100.00
40946;BME280;55635;50.264;11.918;2024-02-04T05:31:44;96114.50;;;9.07;100.00
40946;BME280;55635;50.264;11.918;2024-02-04T05:34:25;96132.34;;;9.29;100.00
40946;BME280;55635;50.264;11.918;2024-02-04T05:37:06;96122.94;;;9.43;100.00
40946;BME280;55635;50.264;11.918;2024-02-04T05:39:47;96127.72;;;9.15;100.00
40946;BME280;55635;50.264;11.918;2024-02-04T05:42:28;96121.75;;;9.29;100.00
40946;BME280;55635;50.264;11.918;2024-02-04T05:45:10;96125.25;;;9.46;100.00
40946;BME280;55635;50.264;11.918;2024-02-04T05:47:51;96116.00;;;9.34;100.00
40946;BME280;55635;50.264;11.918;2024-02-04T05:50:33;96123.09;;;9.58;100.00
40946;BME280;55635;50.264;11.918;2024-02-04T05:53:14;96129.41;;;9.33;100.00
40946;BME280;55635;50.264;11.918;2024-02-04T05:55:55;96120.44;;;9.09;100.00
40946;BME280;55635;50.264;11.918;2024-02-04T05:58:36;96129.66;;;8.89;100.00
40946;BME280;55635;50.264;11.918;2024-02-04T06:01:17;96124.75;;;9.43;100.00
40946;BME280;55635;50.264;11.918;2024-02-04T06:03:58;96135.84;;;9.46;100.00
40946;BME280;55635;50.264;11.918;2024-02-04T06:06:39;96122.59;;;9.46;100.00
40946;BME280;55635;50.264;11.918;2024-02-04T06:09:20;96110.19;;;9.55;100.00
40946;BME280;55635;50.264;11.918;2024-02-04T06:12:01;96106.06;;;9.12;100.00
40946;BME280;55635;50.264;11.918;2024-02-04T06:14:43;96089.19;;;9.13;100.00
40946;BME280;55635;50.264;11.918;2024-02-04T06:17:24;96102.16;;;8.58;100.00
40946;BME280;55635;50.264;11.918;2024-02-04T06:20:05;96102.06;;;8.84;100.00
40946;BME280;55635;50.264;11.918;2024-02-04T06:22:47;96111.97;;;8.82;100.00
40946;BME280;55635;50.264;11.918;2024-02-04T06:25:28;96116.22;;;8.58;100.00
40946;BME280;55635;50.264;11.918;2024-02-04T06:28:09;96122.66;;;8.64;100.00
40946;BME280;55635;50.264;11.918;2024-02-04T06:30:51;96131.13;;;8.75;100.00
40946;BME280;55635;50.264;11.918;2024-02-04T06:33:32;96128.34;;;8.85;100.00
40946;BME280;55635;50.264;11.918;2024-02-04T06:36:13;96130.78;;;8.70;100.00
40946;BME280;55635;50.264;11.918;2024-02-04T06:38:54;96143.72;;;8.90;100.00
40946;BME280;55635;50.264;11.918;2024-02-04T06:41:35;96132.28;;;8.81;100.00
40946;BME280;55635;50.264;11.918;2024-02-04T06:44:17;96120.53;;;8.67;100.00
40946;BME280;55635;50.264;11.918;2024-02-04T06:46:58;96137.09;;;8.86;100.00
40946;BME280;55635;50.264;11.918;2024-02-04T06:49:48;96136.59;;;8.82;100.00
40946;BME280;55635;50.264;11.918;2024-02-04T06:52:29;96132.34;;;9.21;100.00
40946;BME280;55635;50.264;11.918;2024-02-04T06:55:10;96110.38;;;9.05;100.00
40946;BME280;55635;50.264;11.918;2024-02-04T06:57:51;96108.81;;;8.78;100.00
40946;BME280;55635;50.264;11.918;2024-02-04T07:00:32;96116.41;;;8.73;100.00
40946;BME280;55635;50.264;11.918;2024-02-04T07:03:13;96109.44;;;8.56;100.00
40946;BME280;55635;50.264;11.918;2024-02-04T07:05:54;96114.34;;;8.43;100.00
40946;BME280;55635;50.264;11.918;2024-02-04T07:08:35;96123.50;;;8.64;100.00
40946;BME280;55635;50.264;11.918;2024-02-04T07:11:16;96125.03;;;8.41;100.00
40946;BME280;55635;50.264;11.918;2024-02-04T07:13:58;96112.78;;;8.74;100.00
40946;BME280;55635;50.264;11.918;2024-02-04T07:16:41;96101.06;;;8.85;100.00
40946;BME280;55635;50.264;11.918;2024-02-04T07:19:21;96114.28;;;8.77;100.00
40946;BME280;55635;50.264;11.918;2024-02-04T07:22:03;96110.78;;;8.76;100.00
40946;BME280;55635;50.264;11.918;2024-02-04T07:24:44;96092.47;;;8.83;100.00
40946;BME280;55635;50.264;11.918;2024-02-04T07:27:25;96102.34;;;8.64;100.00
40946;BME280;55635;50.264;11.918;2024-02-04T07:30:07;96098.59;;;8.91;100.00
40946;BME280;55635;50.264;11.918;2024-02-04T07:32:48;96098.75;;;8.82;100.00
40946;BME280;55635;50.264;11.918;2024-02-04T07:35:30;96092.56;;;8.57;100.00
40946;BME280;55635;50.264;11.918;2024-02-04T07:38:11;96104.72;;;8.34;100.00
40946;BME280;55635;50.264;11.918;2024-02-04T07:40:51;96106.66;;;8.73;100.00
40946;BME280;55635;50.264;11.918;2024-02-04T07:43:33;96113.66;;;8.99;100.00
40946;BME280;55635;50.264;11.918;2024-02-04T07:46:15;96097.94;;;8.97;100.00
40946;BME280;55635;50.264;11.918;2024-02-04T07:48:56;96105.91;;;9.13;100.00
40946;BME280;55635;50.264;11.918;2024-02-04T07:51:37;96106.47;;;8.67;100.00
40946;BME280;55635;50.264;11.918;2024-02-04T07:54:18;96093.31;;;8.83;100.00
40946;BME280;55635;50.264;11.918;2024-02-04T07:56:59;96113.34;;;9.26;100.00
40946;BME280;55635;50.264;11.918;2024-02-04T07:59:41;96108.88;;;9.26;100.00
40946;BME280;55635;50.264;11.918;2024-02-04T08:02:22;96118.47;;;9.19;100.00
40946;BME280;55635;50.264;11.918;2024-02-04T08:05:04;96116.47;;;9.21;100.00
40946;BME280;55635;50.264;11.918;2024-02-04T08:07:45;96127.34;;;9.02;100.00
40946;BME280;55635;50.264;11.918;2024-02-04T08:10:26;96112.34;;;9.27;100.00
40946;BME280;55635;50.264;11.918;2024-02-04T08:13:07;96100.78;;;9.44;100.00
40946;BME280;55635;50.264;11.918;2024-02-04T08:15:48;96078.13;;;9.01;100.00
40946;BME280;55635;50.264;11.918;2024-02-04T08:18:29;96094.47;;;8.89;100.00
40946;BME280;55635;50.264;11.918;2024-02-04T08:21:10;96094.66;;;8.95;100.00
40946;BME280;55635;50.264;11.918;2024-02-04T08:23:51;96076.09;;;8.71;100.00
40946;BME280;55635;50.264;11.918;2024-02-04T08:26:33;96071.50;;;8.89;100.00
40946;BME280;55635;50.264;11.918;2024-02-04T08:29:14;96084.72;;;9.29;100.00
40946;BME280;55635;50.264;11.918;2024-02-04T08:31:55;96082.41;;;9.26;100.00
40946;BME280;55635;50.264;11.918;2024-02-04T08:34:37;96093.13;;;8.85;100.00
40946;BME280;55635;50.264;11.918;2024-02-04T08:37:18;96092.19;;;9.10;100.00
40946;BME280;55635;50.264;11.918;2024-02-04T08:40:00;96079.63;;;8.96;100.00
40946;BME280;55635;50.264;11.918;2024-02-04T08:42:41;96075.97;;;8.89;100.00
40946;BME280;55635;50.264;11.918;2024-02-04T08:45:22;96097.28;;;9.11;100.00
40946;BME280;55635;50.264;11.918;2024-02-04T08:48:03;96111.69;;;9.17;100.00
40946;BME280;55635;50.264;11.918;2024-02-04T08:50:45;96090.19;;;9.04;100.00
40946;BME280;55635;50.264;11.918;2024-02-04T08:53:26;96072.00;;;9.01;100.00
40946;BME280;55635;50.264;11.918;2024-02-04T08:56:07;96091.34;;;9.25;100.00
40946;BME280;55635;50.264;11.918;2024-02-04T08:58:48;96093.31;;;9.40;100.00
40946;BME280;55635;50.264;11.918;2024-02-04T09:01:29;96081.94;;;9.31;100.00
40946;BME280;55635;50.264;11.918;2024-02-04T09:04:10;96085.72;;;9.28;100.00
40946;BME280;55635;50.264;11.918;2024-02-04T09:06:51;96082.75;;;9.40;100.00
40946;BME280;55635;50.264;11.918;2024-02-04T09:09:32;96069.34;;;9.41;100.00
40946;BME280;55635;50.264;11.918;2024-02-04T09:12:13;96064.88;;;9.50;100.00
40946;BME280;55635;50.264;11.918;2024-02-04T09:14:55;96060.41;;;9.42;100.00
40946;BME280;55635;50.264;11.918;2024-02-04T09:17:36;96070.84;;;9.27;100.00
40946;BME280;55635;50.264;11.918;2024-02-04T09:20:17;96063.88;;;9.59;100.00
40946;BME280;55635;50.264;11.918;2024-02-04T09:22:58;96063.03;;;9.66;100.00
40946;BME280;55635;50.264;11.918;2024-02-04T09:25:39;96068.53;;;9.24;100.00
40946;BME280;55635;50.264;11.918;2024-02-04T09:28:20;96071.31;;;9.55;100.00
40946;BME280;55635;50.264;11.918;2024-02-04T09:31:02;96062.34;;;9.72;100.00
40946;BME280;55635;50.264;11.918;2024-02-04T09:33:44;96056.09;;;9.49;100.00
40946;BME280;55635;50.264;11.918;2024-02-04T09:36:25;96052.09;;;9.69;100.00
40946;BME280;55635;50.264;11.918;2024-02-04T09:39:06;96031.63;;;9.55;100.00
40946;BME280;55635;50.264;11.918;2024-02-04T09:41:47;96058.34;;;9.93;100.00
40946;BME280;55635;50.264;11.918;2024-02-04T09:44:28;96059.19;;;9.77;100.00
40946;BME280;55635;50.264;11.918;2024-02-04T09:47:09;96059.28;;;9.45;100.00
40946;BME280;55635;50.264;11.918;2024-02-04T09:49:53;96055.56;;;9.78;100.00
40946;BME280;55635;50.264;11.918;2024-02-04T09:52:40;96070.06;;;9.98;100.00
40946;BME280;55635;50.264;11.918;2024-02-04T09:55:24;96060.88;;;9.70;100.00
40946;BME280;55635;50.264;11.918;2024-02-04T09:58:06;96063.34;;;9.71;100.00
40946;BME280;55635;50.264;11.918;2024-02-04T10:00:47;96051.06;;;9.78;100.00
40946;BME280;55635;50.264;11.918;2024-02-04T10:03:28;96045.59;;;9.88;100.00
40946;BME280;55635;50.264;11.918;2024-02-04T10:06:10;96057.31;;;10.02;100.00
40946;BME280;55635;50.264;11.918;2024-02-04T10:08:51;96041.97;;;9.89;100.00
40946;BME280;55635;50.264;11.918;2024-02-04T10:11:32;96056.78;;;10.06;99.22
40946;BME280;55635;50.264;11.918;2024-02-04T10:14:13;96057.94;;;10.20;98.67
40946;BME280;55635;50.264;11.918;2024-02-04T10:16:56;96057.38;;;10.32;98.18
40946;BME280;55635;50.264;11.918;2024-02-04T10:19:38;96064.03;;;10.12;99.58
40946;BME280;55635;50.264;11.918;2024-02-04T10:22:19;96060.50;;;9.89;99.55
40946;BME280;55635;50.264;11.918;2024-02-04T10:25:09;96053.28;;;10.22;99.67
40946;BME280;55635;50.264;11.918;2024-02-04T10:27:53;96059.16;;;9.85;99.79
40946;BME280;55635;50.264;11.918;2024-02-04T10:30:38;96056.13;;;10.20;99.35
40946;BME280;55635;50.264;11.918;2024-02-04T10:33:20;96045.06;;;10.01;98.73
40946;BME280;55635;50.264;11.918;2024-02-04T10:36:01;96018.91;;;10.06;98.99
40946;BME280;55635;50.264;11.918;2024-02-04T10:38:42;96038.63;;;9.95;99.49
40946;BME280;55635;50.264;11.918;2024-02-04T10:41:24;96044.34;;;10.23;100.00
40946;BME280;55635;50.264;11.918;2024-02-04T10:44:06;96041.56;;;10.08;100.00
40946;BME280;55635;50.264;11.918;2024-02-04T10:46:51;96032.22;;;10.28;100.00
40946;BME280;55635;50.264;11.918;2024-02-04T10:49:34;96027.78;;;10.13;100.00
40946;BME280;55635;50.264;11.918;2024-02-04T10:52:18;96026.66;;;10.15;100.00
40946;BME280;55635;50.264;11.918;2024-02-04T10:54:59;96017.34;;;10.19;100.00
40946;BME280;55635;50.264;11.918;2024-02-04T10:57:41;96007.66;;;9.96;100.00
40946;BME280;55635;50.264;11.918;2024-02-04T11:00:22;96001.81;;;10.16;100.00
40946;BME280;55635;50.264;11.918;2024-02-04T11:03:04;96010.72;;;10.23;100.00
40946;BME280;55635;50.264;11.918;2024-02-04T11:05:47;95995.75;;;10.38;100.00
40946;BME280;55635;50.264;11.918;2024-02-04T11:08:28;95987.81;;;10.30;100.00
40946;BME280;55635;50.264;11.918;2024-02-04T11:11:10;95980.16;;;10.05;100.00
40946;BME280;55635;50.264;11.918;2024-02-04T11:13:56;95963.56;;;10.11;100.00
40946;BME280;55635;50.264;11.918;2024-02-04T11:22:54;95940.69;;;9.79;100.00
40946;BME280;55635;50.264;11.918;2024-02-04T11:25:45;95924.88;;;10.02;100.00
40946;BME280;55635;50.264;11.918;2024-02-04T11:28:27;95931.13;;;9.15;100.00
40946;BME280;55635;50.264;11.918;2024-02-04T11:31:18;95934.34;;;9.88;100.00
40946;BME280;55635;50.264;11.918;2024-02-04T11:34:00;95923.63;;;9.51;100.00
40946;BME280;55635;50.264;11.918;2024-02-04T11:36:42;95934.22;;;9.43;100.00
40946;BME280;55635;50.264;11.918;2024-02-04T11:39:24;95925.44;;;9.89;100.00
40946;BME280;55635;50.264;11.918;2024-02-04T11:42:14;95914.97;;;9.96;100.00
40946;BME280;55635;50.264;11.918;2024-02-04T11:45:11;95915.22;;;9.78;100.00
40946;BME280;55635;50.264;11.918;2024-02-04T11:48:01;95912.25;;;9.73;100.00
40946;BME280;55635;50.264;11.918;2024-02-04T11:50:42;95918.22;;;9.67;100.00
40946;BME280;55635;50.264;11.918;2024-02-04T11:53:24;95896.38;;;9.73;100.00
40946;BME280;55635;50.264;11.918;2024-02-04T11:56:06;95901.81;;;9.79;100.00
40946;BME280;55635;50.264;11.918;2024-02-04T11:58:47;95910.00;;;9.62;100.00
40946;BME280;55635;50.264;11.918;2024-02-04T12:01:28;95912.81;;;9.99;100.00
40946;BME280;55635;50.264;11.918;2024-02-04T12:04:16;95916.47;;;9.51;100.00
40946;BME280;55635;50.264;11.918;2024-02-04T12:06:58;95902.63;;;9.80;100.00
40946;BME280;55635;50.264;11.918;2024-02-04T12:09:39;95901.16;;;9.77;100.00
40946;BME280;55635;50.264;11.918;2024-02-04T12:12:20;95909.66;;;9.65;100.00
40946;BME280;55635;50.264;11.918;2024-02-04T12:15:01;95901.03;;;9.32;100.00
40946;BME280;55635;50.264;11.918;2024-02-04T12:17:45;95914.00;;;9.50;100.00
40946;BME280;55635;50.264;11.918;2024-02-04T12:20:26;95898.13;;;9.50;100.00
40946;BME280;55635;50.264;11.918;2024-02-04T12:23:07;95905.53;;;9.54;100.00
40946;BME280;55635;50.264;11.918;2024-02-04T12:25:49;95897.44;;;9.56;100.00
40946;BME280;55635;50.264;11.918;2024-02-04T12:28:30;95898.66;;;9.76;100.00
40946;BME280;55635;50.264;11.918;2024-02-04T12:31:22;95886.56;;;9.43;100.00
40946;BME280;55635;50.264;11.918;2024-02-04T12:34:03;95885.28;;;9.39;100.00
40946;BME280;55635;50.264;11.918;2024-02-04T12:36:45;95888.03;;;9.53;100.00
40946;BME280;55635;50.264;11.918;2024-02-04T12:39:26;95880.13;;;9.84;100.00
40946;BME280;55635;50.264;11.918;2024-02-04T12:42:07;95880.88;;;9.62;100.00
40946;BME280;55635;50.264;11.918;2024-02-04T12:44:49;95888.06;;;9.84;100.00
40946;BME280;55635;50.264;11.918;2024-02-04T12:47:30;95877.00;;;9.72;100.00
40946;BME280;55635;50.264;11.918;2024-02-04T12:50:11;95881.44;;;9.49;100.00
40946;BME280;55635;50.264;11.918;2024-02-04T12:53:05;95864.22;;;9.84;100.00
40946;BME280;55635;50.264;11.918;2024-02-04T12:55:47;95864.84;;;9.86;100.00
40946;BME280;55635;50.264;11.918;2024-02-04T12:58:28;95876.22;;;9.95;100.00
40946;BME280;55635;50.264;11.918;2024-02-04T13:01:09;95876.47;;;10.08;100.00
40946;BME280;55635;50.264;11.918;2024-02-04T13:03:51;95876.84;;;10.05;100.00
40946;BME280;55635;50.264;11.918;2024-02-04T13:06:38;95867.44;;;10.25;100.00
40946;BME280;55635;50.264;11.918;2024-02-04T13:09:19;95870.28;;;10.23;100.00
40946;BME280;55635;50.264;11.918;2024-02-04T13:14:43;95887.41;;;10.35;100.00
40946;BME280;55635;50.264;11.918;2024-02-04T13:17:25;95891.00;;;10.20;100.00
40946;BME280;55635;50.264;11.918;2024-02-04T13:20:06;95884.16;;;10.25;100.00
40946;BME280;55635;50.264;11.918;2024-02-04T13:22:50;95867.56;;;10.31;100.00
40946;BME280;55635;50.264;11.918;2024-02-04T13:25:31;95872.38;;;10.51;100.00
40946;BME280;55635;50.264;11.918;2024-02-04T13:28:13;95865.91;;;10.30;100.00
40946;BME280;55635;50.264;11.918;2024-02-04T13:30:54;95864.69;;;10.10;100.00
40946;BME280;55635;50.264;11.918;2024-02-04T13:33:38;95871.19;;;10.08;100.00
40946;BME280;55635;50.264;11.918;2024-02-04T13:36:19;95875.03;;;10.28;100.00
40946;BME280;55635;50.264;11.918;2024-02-04T13:39:00;95872.75;;;10.48;100.00
40946;BME280;55635;50.264;11.918;2024-02-04T13:41:41;95870.34;;;10.07;100.00
40946;BME280;55635;50.264;11.918;2024-02-04T13:44:22;95879.53;;;10.65;100.00
40946;BME280;55635;50.264;11.918;2024-02-04T13:47:03;95864.56;;;10.72;99.01
40946;BME280;55635;50.264;11.918;2024-02-04T13:49:44;95865.97;;;10.45;99.58
40946;BME280;55635;50.264;11.918;2024-02-04T13:52:25;95859.66;;;10.46;100.00
40946;BME280;55635;50.264;11.918;2024-02-04T13:55:07;95873.22;;;10.51;100.00
40946;BME280;55635;50.264;11.918;2024-02-04T13:57:48;95863.03;;;10.40;100.00
40946;BME280;55635;50.264;11.918;2024-02-04T14:00:30;95869.09;;;10.26;100.00
40946;BME280;55635;50.264;11.918;2024-02-04T14:03:11;95869.75;;;10.28;100.00
40946;BME280;55635;50.264;11.918;2024-02-04T14:05:54;95863.22;;;10.38;100.00
40946;BME280;55635;50.264;11.918;2024-02-04T14:08:35;95852.53;;;10.47;100.00
40946;BME280;55635;50.264;11.918;2024-02-04T14:11:17;95851.38;;;10.26;100.00
40946;BME280;55635;50.264;11.918;2024-02-04T14:13:58;95861.28;;;10.32;100.00
40946;BME280;55635;50.264;11.918;2024-02-04T14:16:39;95874.63;;;10.16;100.00